My Meet Scores
Gigi Creegan, Gym Kinetics Gymnastics - MyMeetScores.com
Top100 | Top Teams | Upcoming Meets | Completed Meets | Latest | Add Scores | Help| Support | Bookmark and Share

Gigi Creegan, Gym Kinetics Gymnastics
Personal Bests
LevelVault BarsBeamFloorAA
39.6009.750 9.6259.82538.650
49.4009.625 9.8009.70037.800
Scores on America's Top 100as of 10.27.2021
Year Level Vault Bars Beam Floor AA
2019 39.825
2020 49.800

Click here to view our exclusive Top 100 Collection
Meet Scores
Date Meet Team Session Level Division Vault Bars Beam Floor AA
2021-03-12 2021 Illinois Level 4 State Championships Gym Kinetics Gymnastics 7 4 Sr C 9.325 2 9.625 5T 9.400 4* 9.450 4 37.800 1T
2021-02-26 Kinetic Classic 2021 Gym Kinetics Gymnastics 09 4 Older 8.925 7 9.375 4 9.550 3 9.425 5 37.275 2
2021-02-12 Harley Meet Women - Midwest Twisters Gym Kinetics Gymnastics S02 4 Sr A 9.300 3 9.450 1T 9.200 3 9.700 1 37.650 1
2021-01-21 King Arthur Invitational Gym Kinetics Gymnastics 7 4 JR 9.175 1 9.500 3 9.100 5 9.450 4 37.225 2
2021-01-14 2021 Bravo Classic Gym Kinetics Gymnastics 5 4 Sr 9.400 2 9.400 1 9.000 17 9.150 9T 36.950 4T
2020-12-18 Aspire Classic Gym Kinetics Gymnastics 1 4 Older 9.000 3T 9.200 4 9.500 1T 9.300 2 37.000 1
2020-03-06 Illinois Level 4 State Championships Gym Kinetics Gymnastics 4 4 Jr A 9.400 4 9.100 14T 9.800 1T 9.500 2T 37.800 4
2020-02-21 Kinetic Classic Gym Kinetics Gymnastics 06 4 Middle 8.825 28 9.150 38T 9.500 8T 9.550 4T 37.025 10
2020-01-31 Chow's Challenge Gym Kinetics Gymnastics B2 4 Jr B 9.075 2 9.325 4 9.000 7T 9.450 2 36.850 2
2020-01-10 Leenda's Island Adventure Gym Kinetics Gymnastics PG6 4 10 Year Ol 9.050 5 8.700 11T 9.400 4 9.475 1T 36.625 3T
2019-12-20 Aspire Classic - 2019 Gym Kinetics Gymnastics 7A 4 Middle 8.550 9 8.900 7 9.375 4 9.300 1 36.125 4
2019-03-08 2019 Illinois Level 3 State Championship Gym Kinetics Gymnastics 3 3 Jr B 9.600 3T 9.750 1 9.475 2 9.825 1 38.650 1
2019-02-23 Kinetic Classic 2019 Gym Kinetics Gymnastics 1 3 Middle 9.000 16T 9.000 25 9.150 13T 9.775 1 36.925 6T
2019-02-08 Midwest Twisters Harley Meet Womens Gym Kinetics Gymnastics T07 3 9 yrs. 9.500 2 9.075 7 9.250 5 9.575 1 37.400 2
2019-01-18 2019 Bravo Classic Gym Kinetics Gymnastics 6B 3 Jr 9.100 12T 9.150 8T 9.325 5 9.450 2 37.025 7
2019-01-11 St Jude Benefit Meet Gym Kinetics Gymnastics 2A 3 Jr C 9.400 2T 9.000 5T 9.625 1 9.325 7 37.350 2
2018-12-14 2018 Aspire Classic Gym Kinetics Gymnastics 2 3 Sr A 9.400 4T 8.925 9 9.375 3 8.550 16 36.250 8
2018-05-03 Illinois USA Gymnastics Level 3 State Championships Gym Kinetics Gymnastics 7 3 Ch F 9.500 10 9.475 6 8.725 15 9.475 6 37.175 8
2018-02-23 Kinetic Classic Gym Kinetics Gymnastics 5 3 Younger 8.900 42T 9.250 46T 8.725 60 9.525 11T 36.400 39
2018-02-03 Midwest Games Gym Kinetics Gymnastics 4 3 JR B 8.800 10T 8.875 5 9.000 5 9.425 1 36.100 6
2018-01-19 2018 Bravo Classic Gym Kinetics Gymnastics 6B 3 Child 8.825 20T 9.325 4 9.375 1 9.150 5T 36.675 3
2017-12-15 2017 Aspire Classic Gym Kinetics Gymnastics 10A 3 Middle 8.900 14 9.100 7T 7.875 19 9.425 6 35.300 13
Get your scores on
a t-shirt, pin, or hoodie